createdAt,value
2022-11-04T00:47:55.921Z,9.75
2022-11-04T00:50:41.902Z,11.75
2022-11-04T00:53:27.064Z,9.27
2022-11-04T00:56:11.806Z,10.50
2022-11-04T00:58:58.853Z,9.98
2022-11-04T01:45:52.026Z,7.93
2022-11-04T01:48:37.393Z,10.43
2022-11-04T01:51:22.606Z,8.15
2022-11-04T01:54:08.636Z,9.47
2022-11-04T01:56:53.905Z,8.02
2022-11-04T01:59:40.165Z,8.45
2022-11-04T02:46:40.209Z,8.80
2022-11-04T02:49:31.715Z,8.40
2022-11-04T02:52:20.396Z,8.15
2022-11-04T02:55:16.382Z,8.07
2022-11-04T02:58:02.808Z,8.68
2022-11-04T03:45:11.706Z,8.55
2022-11-04T03:47:57.927Z,7.75
2022-11-04T03:50:44.070Z,7.03
2022-11-04T03:53:30.412Z,7.97
2022-11-04T03:56:28.123Z,7.10
2022-11-04T03:59:32.250Z,6.82
2022-11-04T04:46:23.479Z,6.63
2022-11-04T04:49:09.686Z,6.53
2022-11-04T04:51:55.556Z,6.90
2022-11-04T04:54:41.517Z,7.25
2022-11-04T04:57:26.625Z,6.53
2022-11-04T05:32:04.932Z,6.60
2022-11-04T05:34:50.169Z,6.25
2022-11-04T05:37:34.925Z,6.97
2022-11-04T05:40:19.714Z,7.45
2022-11-04T05:43:06.021Z,7.17
2022-11-04T05:45:51.503Z,6.40
2022-11-04T05:48:40.512Z,6.60
2022-11-04T05:51:27.502Z,7.47
2022-11-04T05:54:12.726Z,6.68
2022-11-04T05:56:58.481Z,6.67
2022-11-04T05:59:43.841Z,6.97
2022-11-04T06:02:29.489Z,6.82
2022-11-04T06:05:14.811Z,6.78
2022-11-04T06:07:59.793Z,6.78
2022-11-04T06:10:44.952Z,6.47
2022-11-04T06:13:30.021Z,5.95
2022-11-04T06:16:15.890Z,6.43
2022-11-04T06:19:05.841Z,6.45
2022-11-04T06:21:55.970Z,6.65
2022-11-04T06:24:41.889Z,6.23
2022-11-04T06:27:26.990Z,7.53
2022-11-04T06:30:12.816Z,6.80
2022-11-04T06:32:57.758Z,6.28
2022-11-04T06:35:42.778Z,6.63
2022-11-04T06:38:31.349Z,6.03
2022-11-04T06:41:16.853Z,5.88
2022-11-04T06:44:01.738Z,6.38
2022-11-04T06:46:46.990Z,6.68
2022-11-04T06:49:31.983Z,6.68
2022-11-04T06:52:16.748Z,6.60
2022-11-04T06:55:01.744Z,6.47
2022-11-04T06:57:47.020Z,6.13
2022-11-04T07:00:31.976Z,6.28
2022-11-04T07:03:16.957Z,7.10
2022-11-04T07:06:05.793Z,6.20
2022-11-04T07:08:51.581Z,6.07
2022-11-04T07:11:36.687Z,6.25
2022-11-04T07:14:21.407Z,5.78
2022-11-04T07:17:06.522Z,6.07
2022-11-04T07:19:51.276Z,6.77
2022-11-04T07:22:36.122Z,6.13
2022-11-04T07:25:21.063Z,6.30
2022-11-04T07:28:06.078Z,6.55
2022-11-04T07:30:51.486Z,6.32
2022-11-04T07:33:36.341Z,6.97
2022-11-04T07:36:21.189Z,7.97
2022-11-04T07:39:06.749Z,5.65
2022-11-04T07:41:54.298Z,7.10
2022-11-04T07:44:41.846Z,6.15
2022-11-04T07:47:29.658Z,6.00
2022-11-04T07:50:14.840Z,6.13
2022-11-04T07:53:00.709Z,6.18
2022-11-04T07:55:49.590Z,6.75
2022-11-04T07:58:34.969Z,5.53
2022-11-04T08:01:23.375Z,6.20
2022-11-04T08:04:08.682Z,6.20
2022-11-04T08:06:53.557Z,5.80
2022-11-04T08:09:38.360Z,6.00
2022-11-04T08:12:24.279Z,5.57
2022-11-04T08:15:09.784Z,6.37
2022-11-04T08:17:54.664Z,6.45
2022-11-04T08:20:39.621Z,5.95
2022-11-04T08:23:24.548Z,6.43
2022-11-04T08:26:11.228Z,6.70
2022-11-04T08:28:57.215Z,9.90
2022-11-04T08:31:42.379Z,8.02
2022-11-04T08:34:27.842Z,9.05
2022-11-04T08:37:14.890Z,7.68
2022-11-04T08:39:59.672Z,7.05
2022-11-04T08:42:44.483Z,6.57
2022-11-04T08:45:33.541Z,7.35
2022-11-04T08:48:18.845Z,8.07
2022-11-04T08:51:05.593Z,7.00
2022-11-04T08:53:50.842Z,8.48
2022-11-04T08:56:38.163Z,6.37
2022-11-04T08:59:23.135Z,6.57
2022-11-04T09:02:12.544Z,5.80
2022-11-04T09:04:57.618Z,7.40
2022-11-04T09:07:42.900Z,7.13
2022-11-04T09:10:28.547Z,7.20
2022-11-04T09:13:15.576Z,6.63
2022-11-04T09:16:00.679Z,8.60
2022-11-04T09:18:45.482Z,7.10
2022-11-04T09:21:30.672Z,6.53
2022-11-04T09:24:15.652Z,8.03
2022-11-04T09:27:00.487Z,8.52
2022-11-04T09:29:45.260Z,7.30
2022-11-04T09:32:29.978Z,8.10
2022-11-04T09:35:17.669Z,6.53
2022-11-04T09:38:02.784Z,8.07
2022-11-04T09:40:48.649Z,6.38
2022-11-04T09:43:53.194Z,7.57
2022-11-04T09:46:38.744Z,7.10
2022-11-04T09:49:24.728Z,6.78
2022-11-04T09:52:16.976Z,7.27
2022-11-04T09:55:06.544Z,6.65
2022-11-04T09:57:54.536Z,7.45
2022-11-04T10:00:40.086Z,5.95
2022-11-04T10:03:38.946Z,7.95
2022-11-04T10:06:43.160Z,6.73
2022-11-04T10:09:28.404Z,5.55
2022-11-04T10:12:22.999Z,5.47
2022-11-04T10:15:31.445Z,8.40
2022-11-04T10:18:25.566Z,7.97
2022-11-04T10:21:19.779Z,6.63
2022-11-04T10:24:14.250Z,7.38
2022-11-04T10:27:12.191Z,8.90
2022-11-04T10:30:01.616Z,5.78
2022-11-04T10:32:53.940Z,6.60
2022-11-04T10:36:17.607Z,6.83
2022-11-04T10:39:04.646Z,8.25
2022-11-04T10:41:49.816Z,7.53
2022-11-04T10:44:37.066Z,7.00
2022-11-04T10:47:22.142Z,5.63
2022-11-04T10:50:29.456Z,6.03
2022-11-04T10:53:25.736Z,7.40
2022-11-04T10:56:20.569Z,6.45
2022-11-04T10:59:24.543Z,8.73
2022-11-04T11:02:10.195Z,8.02
2022-11-04T11:05:11.946Z,8.90
2022-11-04T11:07:58.701Z,8.27
2022-11-04T11:10:50.696Z,8.52
2022-11-04T11:13:37.170Z,6.93
2022-11-04T11:16:26.327Z,7.05
2022-11-04T11:19:11.647Z,5.13
2022-11-04T11:21:57.243Z,9.73
2022-11-04T11:24:42.110Z,7.55
2022-11-04T11:27:26.976Z,8.10
2022-11-04T11:30:32.313Z,10.98
2022-11-04T11:33:18.763Z,6.57
2022-11-04T11:36:12.930Z,6.15
2022-11-04T11:39:05.949Z,7.97
2022-11-04T11:41:57.023Z,4.75
2022-11-04T11:44:52.533Z,7.03
2022-11-04T11:47:41.953Z,5.83
2022-11-04T11:50:31.377Z,6.32
2022-11-04T11:53:18.010Z,7.47
2022-11-04T11:56:24.049Z,6.25
2022-11-04T12:02:31.531Z,6.13
2022-11-04T12:12:07.705Z,4.85
2022-11-04T12:15:08.867Z,5.47
2022-11-04T12:18:12.839Z,6.03
2022-11-04T12:21:05.413Z,7.07
2022-11-04T12:23:53.882Z,6.18
2022-11-04T12:26:51.276Z,5.93
2022-11-04T12:29:37.013Z,5.55
2022-11-04T12:32:29.859Z,5.83
2022-11-04T12:35:18.003Z,5.07
2022-11-04T12:38:03.454Z,5.53
2022-11-04T12:41:26.232Z,4.65
2022-11-04T12:44:08.162Z,6.53
2022-11-04T12:47:11.915Z,23.03
2022-11-04T12:50:14.757Z,16.77
2022-11-04T12:53:18.719Z,29.63
2022-11-04T12:56:09.651Z,54.85
2022-11-04T12:58:54.806Z,46.25
2022-11-04T13:01:47.621Z,41.37
2022-11-04T13:04:38.127Z,62.30
2022-11-04T13:07:28.493Z,60.65
2022-11-04T13:10:20.532Z,52.28
2022-11-04T13:13:06.816Z,58.45
2022-11-04T13:15:55.358Z,62.00
2022-11-04T13:18:41.198Z,62.95
2022-11-04T13:21:29.968Z,65.60
2022-11-04T13:24:17.830Z,67.78
2022-11-04T13:27:04.508Z,67.63
2022-11-04T13:29:50.914Z,66.33
2022-11-04T13:32:40.534Z,73.03
2022-11-04T13:35:38.482Z,64.15
2022-11-04T13:38:28.446Z,70.78
2022-11-04T13:41:21.837Z,66.13
2022-11-04T13:44:17.346Z,67.97
2022-11-04T13:47:04.117Z,62.85
2022-11-04T13:49:49.877Z,62.55
2022-11-04T13:52:52.328Z,62.20
2022-11-04T13:55:50.914Z,59.53
2022-11-04T13:58:35.995Z,65.60
2022-11-04T14:01:24.371Z,58.13
2022-11-04T14:04:24.053Z,63.00
2022-11-04T14:07:11.449Z,64.25
2022-11-04T14:09:57.207Z,63.90
2022-11-04T14:12:42.900Z,52.83
2022-11-04T14:15:48.750Z,49.20
2022-11-04T14:18:35.835Z,45.88
2022-11-04T14:21:25.413Z,52.45
2022-11-04T14:24:16.245Z,53.90
2022-11-04T14:27:01.979Z,45.83
2022-11-04T14:29:54.228Z,44.22
2022-11-04T14:32:41.741Z,41.92
2022-11-04T14:35:28.121Z,42.17
2022-11-04T14:38:26.010Z,42.03
2022-11-04T14:41:14.861Z,39.77
2022-11-04T14:44:08.295Z,39.40
2022-11-04T14:46:57.464Z,42.65
2022-11-04T14:49:58.101Z,36.67
2022-11-04T14:52:50.194Z,38.72
2022-11-04T14:55:35.337Z,32.20
2022-11-04T14:58:22.659Z,33.35
2022-11-04T15:01:12.198Z,37.97
2022-11-04T15:04:13.724Z,35.67
2022-11-04T15:07:00.215Z,33.67
2022-11-04T15:09:48.741Z,41.50
2022-11-04T15:12:52.118Z,32.25
2022-11-04T15:15:38.799Z,32.90
2022-11-04T15:18:28.535Z,29.90
2022-11-04T15:21:15.483Z,34.40
2022-11-04T15:24:02.074Z,29.03
2022-11-04T15:26:52.083Z,29.15
2022-11-04T15:29:37.385Z,31.33
2022-11-04T15:32:22.984Z,32.63
2022-11-04T15:35:12.572Z,33.10
2022-11-04T15:37:58.756Z,29.30
2022-11-04T15:40:45.641Z,30.45
2022-11-04T15:43:32.176Z,28.38
2022-11-04T15:46:19.045Z,24.90
2022-11-04T15:49:06.615Z,23.88
2022-11-04T15:51:56.329Z,28.67
2022-11-04T15:54:45.103Z,28.17
2022-11-04T15:57:34.985Z,24.05
2022-11-04T16:00:25.049Z,25.55
2022-11-04T16:03:18.461Z,25.45
2022-11-04T16:06:05.447Z,22.77
2022-11-04T16:09:09.947Z,27.17
2022-11-04T16:12:16.949Z,24.50
2022-11-04T16:15:03.043Z,24.75
2022-11-04T16:17:48.261Z,22.40
2022-11-04T16:20:35.493Z,23.97
2022-11-04T16:23:25.367Z,26.10
2022-11-04T16:26:10.920Z,25.48
2022-11-04T16:28:57.461Z,22.02
2022-11-04T16:31:43.524Z,23.65
2022-11-04T16:34:28.914Z,25.83
2022-11-04T16:37:14.034Z,19.85
2022-11-04T16:39:59.324Z,22.77
2022-11-04T16:42:45.565Z,20.75
2022-11-04T16:45:35.663Z,21.30
2022-11-04T16:48:20.706Z,21.53
2022-11-04T16:51:06.023Z,19.73
2022-11-04T16:53:52.209Z,23.25
2022-11-04T16:56:38.231Z,18.10
2022-11-04T16:59:23.707Z,20.30
2022-11-04T17:02:15.119Z,19.70
2022-11-04T17:05:00.462Z,20.10
2022-11-04T17:07:56.576Z,20.60
2022-11-04T17:10:45.796Z,20.13
2022-11-04T17:13:36.184Z,20.33
2022-11-04T17:16:22.041Z,19.60
2022-11-04T17:19:09.300Z,24.90
2022-11-04T17:21:54.443Z,18.33
2022-11-04T17:24:40.257Z,19.08
2022-11-04T17:27:25.201Z,21.55
2022-11-04T17:30:11.099Z,20.10
2022-11-04T17:32:57.069Z,18.52
2022-11-04T17:35:43.812Z,18.83
2022-11-04T17:38:29.178Z,18.92
2022-11-04T17:41:32.930Z,20.70
2022-11-04T17:44:18.750Z,18.70
2022-11-04T17:47:04.170Z,18.90
2022-11-04T17:49:49.503Z,19.50
2022-11-04T17:52:35.613Z,19.05
2022-11-04T17:55:27.183Z,18.35
2022-11-04T17:58:16.062Z,17.97
2022-11-04T18:01:06.239Z,20.05
2022-11-04T18:03:52.501Z,15.93
2022-11-04T18:06:39.707Z,15.48
2022-11-04T18:09:24.873Z,20.27
2022-11-04T18:12:29.112Z,16.90
2022-11-04T18:15:17.611Z,18.98
2022-11-04T18:18:03.088Z,20.60
2022-11-04T18:20:48.897Z,17.50
2022-11-04T18:23:34.317Z,18.55
2022-11-04T18:26:19.361Z,15.77
2022-11-04T18:29:04.883Z,16.45
2022-11-04T18:31:50.206Z,18.00
2022-11-04T18:34:35.730Z,18.52
2022-11-04T18:37:21.288Z,16.95
2022-11-04T18:40:06.845Z,16.03
2022-11-04T18:42:52.347Z,14.40
2022-11-04T18:45:37.290Z,16.52
2022-11-04T18:48:22.809Z,19.33
2022-11-04T18:51:09.667Z,15.48
2022-11-04T18:53:55.391Z,16.90
2022-11-04T18:56:40.912Z,17.85
2022-11-04T18:59:26.305Z,16.80
2022-11-04T19:02:20.434Z,15.25
2022-11-04T19:05:06.791Z,17.40
2022-11-04T19:07:52.225Z,25.67
2022-11-04T19:10:51.755Z,25.85
2022-11-04T19:13:44.158Z,36.25
2022-11-04T19:16:29.852Z,27.83
2022-11-04T19:19:16.905Z,29.00
2022-11-04T19:22:02.318Z,29.60
2022-11-04T19:24:47.664Z,30.73
2022-11-04T19:27:33.046Z,32.75
2022-11-04T19:30:19.551Z,29.35
2022-11-04T19:33:05.034Z,29.92
2022-11-04T19:35:53.664Z,29.20
2022-11-04T19:38:39.010Z,29.83
2022-11-04T19:41:42.809Z,28.42
2022-11-04T19:44:28.440Z,25.55
2022-11-04T19:47:14.100Z,28.67
2022-11-04T19:50:00.003Z,26.63
2022-11-04T19:52:45.307Z,25.40
2022-11-04T19:55:31.119Z,23.10
2022-11-04T19:58:17.584Z,23.38
2022-11-04T20:01:07.270Z,24.17
2022-11-04T20:03:52.797Z,22.37
2022-11-04T20:06:38.352Z,26.20
2022-11-04T20:09:26.131Z,24.60
2022-11-04T20:12:30.201Z,24.50
2022-11-04T20:15:17.669Z,22.35
2022-11-04T20:18:03.566Z,20.90
2022-11-04T20:20:49.166Z,20.02
2022-11-04T20:23:34.502Z,23.10
2022-11-04T20:26:22.933Z,23.33
2022-11-04T20:29:07.803Z,21.33
2022-11-04T20:31:52.757Z,19.83
2022-11-04T20:34:38.593Z,21.45
2022-11-04T20:37:23.534Z,18.65
2022-11-04T20:40:09.312Z,25.27
2022-11-04T20:42:54.324Z,16.67
2022-11-04T20:45:40.258Z,20.83
2022-11-04T20:48:26.351Z,17.70
2022-11-04T20:51:13.667Z,16.95
2022-11-04T20:54:02.673Z,21.67
2022-11-04T20:56:48.604Z,20.90
2022-11-04T20:59:33.912Z,16.20
2022-11-04T21:02:19.674Z,17.95
2022-11-04T21:05:04.873Z,17.02
2022-11-04T21:07:50.377Z,17.00
2022-11-04T21:10:36.751Z,14.73
2022-11-04T21:13:22.517Z,30.70
2022-11-04T21:16:08.628Z,15.85
2022-11-04T21:18:54.679Z,14.85
2022-11-04T21:21:40.698Z,17.15
2022-11-04T21:24:25.827Z,17.52
2022-11-04T21:27:11.327Z,18.47
2022-11-04T21:29:56.579Z,16.00
2022-11-04T21:32:41.681Z,15.45
2022-11-04T21:35:27.227Z,13.32
2022-11-04T21:38:13.841Z,12.35
2022-11-04T21:41:02.129Z,12.97
2022-11-04T21:43:47.502Z,13.77
2022-11-04T21:46:33.896Z,16.73
2022-11-04T21:49:18.710Z,11.98
2022-11-04T21:52:04.782Z,14.27
2022-11-04T21:54:51.173Z,13.73
2022-11-04T21:57:36.667Z,13.20
2022-11-04T22:00:21.688Z,12.30
2022-11-04T22:03:10.196Z,13.98
2022-11-04T22:05:59.806Z,12.55
2022-11-04T22:08:49.235Z,14.03
2022-11-04T22:11:39.799Z,13.38
2022-11-04T22:14:25.983Z,12.00
2022-11-04T22:17:11.121Z,11.70
2022-11-04T22:19:56.627Z,11.07
2022-11-04T22:22:42.238Z,11.87
2022-11-04T22:25:27.739Z,13.88
2022-11-04T22:28:15.963Z,12.90
2022-11-04T22:31:10.904Z,10.23
2022-11-04T22:33:56.472Z,12.25
2022-11-04T22:36:41.744Z,12.83
2022-11-04T22:39:26.738Z,11.68
2022-11-04T22:42:11.827Z,11.18
2022-11-04T22:44:56.624Z,11.38
2022-11-04T22:47:42.141Z,9.98
2022-11-04T22:50:27.304Z,10.70
2022-11-04T22:53:12.635Z,12.18
2022-11-04T22:55:59.433Z,11.05
2022-11-04T22:58:45.213Z,10.38
2022-11-04T23:01:31.821Z,12.00
2022-11-04T23:04:17.107Z,11.17
2022-11-04T23:07:02.561Z,10.57
2022-11-04T23:10:06.375Z,9.32
2022-11-04T23:13:10.404Z,10.80
2022-11-04T23:28:54.131Z,10.70
2022-11-04T23:31:39.338Z,10.52
2022-11-04T23:34:42.977Z,11.50
2022-11-04T23:37:28.081Z,9.98
2022-11-04T23:40:13.046Z,9.80
2022-11-04T23:42:58.234Z,10.90
2022-11-04T23:46:01.966Z,9.05
2022-11-04T23:49:06.242Z,12.23
2022-11-04T23:52:10.247Z,10.13
2022-11-04T23:55:14.225Z,9.55
2022-11-04T23:58:18.263Z,8.43
